Time;durP1;ratioP1;P1;durP2;ratioP2;P2;SDS_P1;SDS_P2;PMS_P1;PMS_P2;Temp;Humidity;BMP_temperature;BMP_pressure;BME280_temperature;BME280_humidity;BME280_pressure;Samples;Min_cycle;Max_cycle;Signal;HPM_P1;HPM_P2
2022/02/10 00:04:27;;;;;;;11.33;8.47;;;;;;;8.53;79.58;101374.66;5067327;28;20265;-70
2022/02/10 00:07:11;;;;;;;13.73;10.43;;;;;;;8.52;79.65;101375.56;5065928;28;20239;-71
2022/02/10 00:18:01;;;;;;;9.23;5.73;;;;;;;8.51;79.07;101375.63;5069999;28;20224;-71
2022/02/10 00:20:34;;;;;;;8.30;5.40;;;;;;;8.50;78.87;101372.13;5060453;28;20676;-71
2022/02/10 00:23:24;;;;;;;7.47;5.70;;;;;;;8.50;78.44;101376.56;5070685;28;20241;-70
2022/02/10 00:34:25;;;;;;;6.17;5.40;;;;;;;8.51;78.14;101388.91;5068528;28;20293;-70
2022/02/10 00:37:09;;;;;;;6.83;4.97;;;;;;;8.52;78.10;101380.03;5062359;28;20297;-70
2022/02/10 00:39:59;;;;;;;6.47;5.63;;;;;;;8.52;78.06;101377.38;5064864;28;20212;-71
2022/02/10 00:42:26;;;;;;;5.63;4.30;;;;;;;8.51;77.79;101367.69;5069761;28;20229;-67
2022/02/10 00:44:54;;;;;;;6.37;4.50;;;;;;;8.49;77.86;101365.09;5070292;28;20291;-70
2022/02/10 00:47:21;;;;;;;7.20;5.20;;;;;;;8.49;78.15;101372.19;5069839;28;20288;-70
2022/02/10 00:49:48;;;;;;;6.57;5.27;;;;;;;8.49;77.81;101366.88;5069140;28;20275;-70
2022/02/10 00:52:15;;;;;;;7.90;5.20;;;;;;;8.48;77.59;101367.81;5063826;28;20930;-71
2022/02/10 00:54:41;;;;;;;7.70;5.50;;;;;;;8.48;77.38;101365.16;5070170;28;20262;-71
2022/02/10 00:57:09;;;;;;;6.80;4.90;;;;;;;8.46;77.63;101357.25;5066559;28;20303;-70
2022/02/10 00:59:48;;;;;;;4.90;4.40;;;;;;;8.48;77.49;101351.88;5068102;28;20223;-71
2022/02/10 01:02:37;;;;;;;7.77;4.83;;;;;;;8.46;76.92;101345.78;5066381;28;20709;-69
2022/02/10 01:10:46;;;;;;;7.03;4.83;;;;;;;8.45;76.90;101336.06;5067914;28;20204;-69
2022/02/10 01:13:29;;;;;;;5.97;4.13;;;;;;;8.44;76.66;101340.53;5064212;28;20209;-71
2022/02/10 01:29:52;;;;;;;5.37;4.07;;;;;;;8.39;76.74;101312.47;5018804;28;20972;-71
2022/02/10 01:32:18;;;;;;;4.77;4.23;;;;;;;8.38;76.47;101316.91;5042271;28;20235;-70
2022/02/10 01:34:50;;;;;;;6.67;4.20;;;;;;;8.38;76.47;101308.97;5065324;28;20201;-71
2022/02/10 01:37:17;;;;;;;5.73;4.43;;;;;;;8.37;76.52;101309.03;5068998;28;20208;-67
2022/02/10 01:39:49;;;;;;;6.70;4.57;;;;;;;8.36;76.76;101308.16;5069168;28;20292;-70
2022/02/10 01:43:02;;;;;;;6.97;4.73;;;;;;;8.35;76.51;101294.03;5057891;28;20233;-71
2022/02/10 02:04:44;;;;;;;6.83;5.47;;;;;;;8.34;76.33;101255.16;5053912;28;20216;-70
2022/02/10 02:07:13;;;;;;;8.47;6.00;;;;;;;8.34;76.49;101256.94;5065448;28;20286;-70
2022/02/10 02:09:39;;;;;;;6.57;5.87;;;;;;;8.35;76.26;101245.38;5064629;28;20236;-71
2022/02/10 02:12:08;;;;;;;6.33;5.53;;;;;;;8.36;76.04;101241.81;5065704;28;20248;-70
2022/02/10 02:14:35;;;;;;;7.73;6.20;;;;;;;8.36;76.56;101236.50;5059549;28;20201;-71
2022/02/10 02:17:05;;;;;;;8.33;6.47;;;;;;;8.37;76.02;101234.72;5067849;28;20295;-70
2022/02/10 02:19:32;;;;;;;8.53;6.50;;;;;;;8.37;75.89;101247.97;5057170;28;20202;-70
2022/02/10 02:22:02;;;;;;;8.73;6.87;;;;;;;8.39;76.19;101225.75;5066938;22;20550;-74
2022/02/10 02:24:28;;;;;;;8.40;6.93;;;;;;;8.39;75.76;101238.16;5056546;28;20243;-73
2022/02/10 02:26:57;;;;;;;9.30;6.93;;;;;;;8.39;76.02;101230.19;5063049;28;20207;-73
2022/02/10 02:29:30;;;;;;;7.27;6.40;;;;;;;8.38;75.64;101225.81;5068790;28;20225;-74
2022/02/10 02:32:00;;;;;;;8.03;6.23;;;;;;;8.39;75.58;101214.28;5060069;28;20778;-74
2022/02/10 02:34:54;;;;;;;9.00;6.83;;;;;;;8.39;75.81;101216.94;5046365;28;20225;-75
2022/02/10 02:37:46;;;;;;;7.87;7.07;;;;;;;8.38;76.10;101210.75;5042237;28;20691;-75
2022/02/10 03:03:59;;;;;;;8.77;7.20;;;;;;;8.38;75.86;101205.44;5050303;28;20206;-75
2022/02/10 03:05:13;;;;;;;10.20;8.47;;;;;;;8.35;75.43;101185.22;5040249;28;20272;-74
2022/02/10 03:07:46;;;;;;;9.47;7.90;;;;;;;8.37;75.24;101174.53;5047553;28;20212;-74
2022/02/10 03:10:32;;;;;;;8.87;7.83;;;;;;;8.37;75.86;101174.53;5042421;28;20233;-74
2022/02/10 03:12:59;;;;;;;9.47;7.37;;;;;;;8.37;75.62;101171.00;5050416;28;20221;-75
2022/02/10 03:15:30;;;;;;;8.70;7.17;;;;;;;8.38;75.18;101164.78;5052346;28;20216;-74
2022/02/10 03:18:13;;;;;;;8.97;7.00;;;;;;;8.38;75.25;101159.47;5055858;28;20208;-75
2022/02/10 03:20:54;;;;;;;8.70;7.00;;;;;;;8.38;75.46;101155.03;5052971;28;20213;-74
2022/02/10 04:15:29;;;;;;;8.93;6.40;;;;;;;8.32;74.24;101095.13;5030678;28;20214;-73
2022/02/10 04:18:09;;;;;;;8.73;6.30;;;;;;;8.31;74.23;101096.00;5043688;28;20313;-73
2022/02/10 04:20:49;;;;;;;8.27;6.30;;;;;;;8.31;74.26;101089.84;5041201;28;20218;-73
2022/02/10 04:23:28;;;;;;;7.77;5.63;;;;;;;8.28;74.58;101082.88;5034425;28;20249;-72
2022/02/10 04:26:08;;;;;;;9.53;6.80;;;;;;;8.28;74.60;101080.22;5031370;28;20213;-73
2022/02/10 04:28:51;;;;;;;10.10;6.90;;;;;;;8.26;74.04;101065.31;5038563;28;20222;-72
2022/02/10 04:56:47;;;;;;;6.10;5.00;;;;;;;8.12;74.75;101026.16;5010130;28;20267;-71
2022/02/10 04:59:31;;;;;;;10.27;5.57;;;;;;;8.10;74.93;101013.91;5040419;28;20220;-72
2022/02/10 05:02:24;;;;;;;7.10;4.57;;;;;;;8.08;74.77;101011.31;5043162;28;20284;-72
2022/02/10 05:05:27;;;;;;;5.87;4.50;;;;;;;8.06;74.92;101015.84;5036120;28;20698;-72
2022/02/10 05:08:16;;;;;;;6.30;4.60;;;;;;;8.06;74.56;101015.00;5039329;28;20213;-72
2022/02/10 05:19:21;;;;;;;5.97;5.00;;;;;;;7.96;75.14;100999.50;5029556;28;20210;-72
2022/02/10 05:22:13;;;;;;;7.77;4.77;;;;;;;7.94;74.87;101000.50;5040026;28;20276;-71
2022/02/10 05:24:47;;;;;;;7.50;5.87;;;;;;;7.90;75.31;100996.28;5036651;28;20628;-72
2022/02/10 05:33:16;;;;;;;7.03;5.00;;;;;;;7.86;75.59;101002.66;5036665;28;20225;-72
2022/02/10 05:35:46;;;;;;;8.03;5.50;;;;;;;7.84;75.67;101009.84;5049034;28;20297;-71
2022/02/10 05:38:19;;;;;;;5.93;4.70;;;;;;;7.82;75.47;100996.66;5034103;28;20214;-71
2022/02/10 05:43:39;;;;;;;11.37;5.60;;;;;;;7.78;75.50;100995.06;5015546;28;20315;-72
2022/02/10 05:46:14;;;;;;;10.60;6.77;;;;;;;7.76;76.15;100996.91;5047494;28;20662;-71
2022/02/10 05:54:19;;;;;;;11.27;6.27;;;;;;;7.71;76.42;100992.75;5036138;28;20201;-72
2022/02/10 05:56:57;;;;;;;9.13;5.17;;;;;;;7.69;76.09;100997.28;5033677;28;20251;-72
2022/02/10 05:59:53;;;;;;;7.40;4.73;;;;;;;7.65;76.85;100994.78;5040061;28;20678;-70
2022/02/10 06:49:37;;;;;;;12.40;8.63;;;;;;;7.54;79.19;100986.44;5002329;28;20203;-71
2022/02/10 06:52:10;;;;;;;15.30;8.57;;;;;;;7.55;79.54;100989.94;5041126;28;20253;-71
2022/02/10 06:54:55;;;;;;;11.63;7.40;;;;;;;7.55;78.80;100998.75;5036580;28;20266;-71
2022/02/10 06:58:04;;;;;;;10.83;7.30;;;;;;;7.55;79.66;100998.75;5045487;28;20623;-70
2022/02/10 07:03:36;;;;;;;10.33;7.30;;;;;;;7.55;79.80;100995.25;5041102;28;20772;-70
2022/02/10 07:06:14;;;;;;;11.90;8.67;;;;;;;7.55;79.86;100997.91;5036012;28;20207;-71
2022/02/10 07:11:44;;;;;;;10.03;7.30;;;;;;;7.52;79.72;100976.84;5039643;28;20225;-71
2022/02/10 07:17:18;;;;;;;11.67;8.23;;;;;;;7.50;80.14;100982.22;5034060;28;20213;-70
2022/02/10 07:47:51;;;;;;;12.57;8.53;;;;;;;7.54;80.71;100986.44;5031985;28;20686;-70
2022/02/10 07:59:12;;;;;;;9.53;8.03;;;;;;;7.59;80.71;100973.84;5031538;28;20213;-69
2022/02/10 08:56:56;;;;;;;13.63;9.13;;;;;;;7.56;80.90;100968.66;5024832;28;20257;-72
2022/02/10 08:59:53;;;;;;;13.70;9.20;;;;;;;7.57;80.37;100970.38;5011756;28;20217;-73
2022/02/10 09:05:18;;;;;;;11.53;8.80;;;;;;;7.58;80.24;100969.47;5006868;28;20771;-71
2022/02/10 09:08:11;;;;;;;14.47;8.67;;;;;;;7.61;80.53;100971.13;5022937;28;20202;-72
2022/02/10 09:16:34;;;;;;;12.70;9.90;;;;;;;7.67;80.20;100978.81;5028440;28;20594;-73
2022/02/10 09:19:19;;;;;;;14.03;9.57;;;;;;;7.70;79.76;100969.84;5027684;28;20202;-74
2022/02/10 09:22:34;;;;;;;12.90;8.40;;;;;;;7.69;79.80;100974.28;5018843;28;20217;-73
2022/02/10 09:58:11;;;;;;;15.87;10.17;;;;;;;7.83;79.57;100984.25;5017451;28;20602;-74
2022/02/10 10:00:49;;;;;;;13.83;9.63;;;;;;;7.83;79.30;100993.06;5010769;28;20226;-73
2022/02/10 10:03:22;;;;;;;14.97;11.43;;;;;;;7.84;78.69;100989.47;5010244;28;20234;-74
2022/02/10 10:06:01;;;;;;;15.73;10.83;;;;;;;7.87;79.44;100988.47;5017705;28;20218;-71
2022/02/10 10:08:46;;;;;;;15.10;11.67;;;;;;;7.85;79.76;100985.03;5024078;28;20206;-72
2022/02/10 10:14:13;;;;;;;14.10;11.57;;;;;;;7.85;79.72;100990.34;5002447;28;20601;-72
2022/02/10 10:16:50;;;;;;;16.23;10.60;;;;;;;7.86;79.94;100990.28;5023825;28;20629;-71
2022/02/10 10:19:44;;;;;;;17.57;11.87;;;;;;;7.85;80.28;100993.00;5022110;28;20241;-73
2022/02/10 10:22:23;;;;;;;14.97;11.80;;;;;;;7.81;80.97;100989.63;5009401;28;20223;-73
2022/02/10 10:25:23;;;;;;;19.90;16.17;;;;;;;7.80;80.82;100982.59;5013565;28;20215;-74
2022/02/10 10:51:12;;;;;;;16.70;11.83;;;;;;;7.72;82.85;100989.16;5014482;28;20262;-72
2022/02/10 10:53:48;;;;;;;18.63;12.47;;;;;;;7.71;83.29;100984.78;5019223;28;20240;-73
2022/02/10 10:56:20;;;;;;;18.07;12.60;;;;;;;7.69;83.27;100992.84;5029895;28;20576;-71
2022/02/10 10:59:09;;;;;;;16.47;12.57;;;;;;;7.66;83.71;100985.88;5014397;28;21058;-72
2022/02/10 11:06:01;;;;;;;17.53;12.27;;;;;;;7.64;84.76;100984.25;5014075;28;20202;-72
2022/02/10 11:22:15;;;;;;;17.43;12.83;;;;;;;7.64;84.70;100990.41;5023058;28;20209;-72
2022/02/10 11:39:02;;;;;;;4.40;3.00;;;;;;;7.44;87.24;101024.88;5020516;28;20264;-73
2022/02/10 11:41:43;;;;;;;3.20;2.00;;;;;;;7.34;87.67;101026.25;5015321;28;21187;-73
2022/02/10 11:47:59;;;;;;;3.30;2.10;;;;;;;7.19;87.45;101024.22;5014481;28;20217;-73
2022/02/10 13:23:39;;;;;;;3.43;2.77;;;;;;;6.97;86.15;101014.59;5011049;28;20241;-73
2022/02/10 14:13:28;;;;;;;2.70;2.00;;;;;;;6.95;84.36;101048.22;5014300;28;20230;-71
2022/02/10 14:18:45;;;;;;;3.23;1.80;;;;;;;6.95;83.78;101060.59;5023331;28;20221;-71
2022/02/10 14:21:17;;;;;;;2.27;1.90;;;;;;;6.92;83.78;101061.56;5030076;28;20275;-73
2022/02/10 14:26:34;;;;;;;2.77;1.50;;;;;;;6.91;83.51;101064.28;5022414;28;20224;-81
2022/02/10 14:29:02;;;;;;;4.27;1.43;;;;;;;6.87;83.28;101047.66;5022831;28;20210;-80
2022/02/10 14:31:29;;;;;;;3.10;1.63;;;;;;;6.88;83.36;101045.88;5004461;28;20246;-81
2022/02/10 14:33:56;;;;;;;2.50;1.70;;;;;;;6.87;82.83;101052.09;5003038;28;20658;-80
2022/02/10 14:36:29;;;;;;;4.13;1.60;;;;;;;6.91;83.36;101067.78;5018357;28;20235;-80
2022/02/10 14:39:07;;;;;;;3.20;2.33;;;;;;;6.93;83.65;101060.66;5021933;28;20207;-80
2022/02/10 15:15:42;;;;;;;5.00;4.50;;;;;;;6.89;82.80;101104.06;5003230;28;20210;-81
2022/02/10 15:18:04;;;;;;;2.73;2.50;;;;;;;6.87;82.81;101103.25;5014048;28;20206;-80
2022/02/10 15:51:37;;;;;;;5.73;2.77;;;;;;;6.78;80.76;101124.81;5014844;28;20226;-82
2022/02/10 16:14:22;;;;;;;7.87;5.37;;;;;;;6.65;80.43;101120.91;5015978;28;20299;-81
2022/02/10 16:19:04;;;;;;;5.40;3.10;;;;;;;6.60;80.25;101115.84;5025615;28;20221;-80
2022/02/10 16:21:36;;;;;;;7.03;3.80;;;;;;;6.59;79.98;101121.19;5016011;28;20619;-80
2022/02/10 16:24:15;;;;;;;3.77;2.57;;;;;;;6.57;79.89;101115.94;5012931;28;20264;-78
2022/02/10 16:26:53;;;;;;;3.90;1.93;;;;;;;6.55;79.83;101107.19;5015830;28;20226;-80
2022/02/10 16:29:20;;;;;;;4.83;2.63;;;;;;;6.56;79.91;101113.34;5012270;28;20206;-80
2022/02/10 16:31:49;;;;;;;3.00;2.10;;;;;;;6.52;79.70;101101.16;5010735;28;20986;-79
2022/02/10 16:34:16;;;;;;;4.50;2.77;;;;;;;6.51;79.45;101108.22;5007150;28;20215;-79
2022/02/10 16:36:45;;;;;;;4.20;2.60;;;;;;;6.49;79.13;101102.13;5009772;28;20274;-81
2022/02/10 16:39:14;;;;;;;6.40;4.23;;;;;;;6.48;79.62;101103.06;5018089;28;20248;-79
2022/02/10 16:41:41;;;;;;;5.27;3.33;;;;;;;6.47;79.57;101119.00;5011647;28;20760;-81
2022/02/10 16:44:08;;;;;;;5.30;3.03;;;;;;;6.48;79.42;101121.59;5008566;28;20239;-79
2022/02/10 16:46:34;;;;;;;6.20;3.20;;;;;;;6.47;79.74;101113.69;5011228;28;20231;-80
2022/02/10 16:49:01;;;;;;;4.93;2.67;;;;;;;6.47;79.75;101126.94;5010495;28;20263;-80
2022/02/10 16:51:28;;;;;;;6.67;3.13;;;;;;;6.46;79.64;101111.97;5010912;28;20299;-80
2022/02/10 16:54:03;;;;;;;4.23;2.80;;;;;;;6.46;80.04;101120.78;5011910;28;20207;-79
2022/02/10 16:56:38;;;;;;;5.50;3.07;;;;;;;6.45;79.53;101118.22;5019233;28;20214;-81
2022/02/10 16:59:22;;;;;;;3.23;2.70;;;;;;;6.44;79.55;101121.78;5013768;28;20721;-81
2022/02/10 17:04:58;;;;;;;6.57;3.33;;;;;;;6.42;79.33;101121.84;4980492;28;20286;-79
2022/02/10 17:16:42;;;;;;;7.77;6.73;;;;;;;6.36;78.99;101127.34;5012060;28;20289;-79
2022/02/10 17:27:19;;;;;;;10.77;8.90;;;;;;;6.36;79.11;101129.13;4972574;28;20208;-79
2022/02/10 17:32:47;;;;;;;9.30;8.40;;;;;;;6.35;79.77;101132.69;4999427;28;20237;-79
2022/02/10 17:35:23;;;;;;;12.80;11.47;;;;;;;6.35;79.96;101138.00;5003377;28;20206;-80
2022/02/10 17:44:02;;;;;;;6.90;5.10;;;;;;;6.33;79.86;101142.47;5009629;28;20225;-79
2022/02/10 17:46:40;;;;;;;11.87;10.17;;;;;;;6.31;79.90;101146.97;5003098;28;20199;-79
2022/02/10 17:52:00;;;;;;;10.97;9.03;;;;;;;6.30;80.41;101151.38;5003616;28;20388;-81
2022/02/10 17:54:28;;;;;;;7.80;6.13;;;;;;;6.28;80.83;101147.94;5012531;28;20250;-80
2022/02/10 17:56:54;;;;;;;10.50;5.83;;;;;;;6.26;80.63;101150.66;5008535;28;20210;-80
2022/02/10 17:59:22;;;;;;;10.17;6.93;;;;;;;6.25;80.92;101163.94;5011048;28;20207;-80
2022/02/10 18:01:50;;;;;;;9.63;5.20;;;;;;;6.23;81.32;101158.72;5006900;28;20223;-80
2022/02/10 18:04:19;;;;;;;9.93;5.67;;;;;;;6.21;81.48;101149.97;5013693;28;20718;-80
2022/02/10 18:06:47;;;;;;;9.13;5.70;;;;;;;6.21;81.29;101157.03;5009274;28;20212;-79
2022/02/10 18:15:06;;;;;;;14.03;8.13;;;;;;;6.13;81.72;101157.31;5011675;28;20192;-81
2022/02/10 18:17:38;;;;;;;8.90;5.80;;;;;;;6.13;81.46;101157.31;5020673;28;20266;-80
2022/02/10 18:20:10;;;;;;;6.27;5.57;;;;;;;6.10;82.10;101154.78;5018641;28;20195;-80
2022/02/10 18:22:49;;;;;;;9.13;5.97;;;;;;;6.08;82.32;101161.94;5010719;28;20251;-80
2022/02/10 18:28:19;;;;;;;25.17;14.00;;;;;;;6.04;82.46;101162.94;5015993;28;20262;-80
2022/02/10 18:34:25;;;;;;;9.63;5.77;;;;;;;6.03;82.01;101168.28;5015462;28;20265;-79
2022/02/10 19:07:33;;;;;;;6.90;3.90;;;;;;;5.88;82.80;101185.53;4998235;28;20203;-82
2022/02/10 19:10:00;;;;;;;5.53;3.80;;;;;;;5.87;82.67;101189.97;5016874;28;20204;-81
2022/02/10 19:12:32;;;;;;;6.37;3.40;;;;;;;5.84;82.49;101175.97;5023115;28;20247;-80
2022/02/10 19:15:08;;;;;;;8.03;6.50;;;;;;;5.82;82.46;101186.59;5013735;28;20200;-81
2022/02/10 19:17:36;;;;;;;10.97;8.13;;;;;;;5.82;82.55;101180.47;5018917;28;20206;-80
2022/02/10 19:20:03;;;;;;;14.10;12.80;;;;;;;5.83;82.77;101190.13;5014492;28;20207;-80
2022/02/10 19:22:31;;;;;;;38.40;34.20;;;;;;;5.84;83.11;101187.41;5018344;28;20299;-81
2022/02/10 19:24:58;;;;;;;9.23;7.50;;;;;;;5.85;82.90;101185.63;5015686;28;20231;-82
2022/02/10 19:27:24;;;;;;;8.03;6.70;;;;;;;5.85;83.03;101183.88;5017037;28;20199;-80
2022/02/10 19:29:57;;;;;;;14.50;11.33;;;;;;;5.84;82.82;101187.41;5014543;28;20281;-82
2022/02/10 19:32:24;;;;;;;6.70;5.63;;;;;;;5.83;82.96;101190.13;5019755;28;20341;-82
2022/02/10 19:34:53;;;;;;;7.43;4.30;;;;;;;5.82;83.23;101189.25;5011423;28;20212;-80
2022/02/10 19:37:20;;;;;;;8.33;6.27;;;;;;;5.78;82.98;101194.69;5018643;28;20222;-80
2022/02/10 19:39:53;;;;;;;5.13;4.10;;;;;;;5.74;82.91;101201.84;5015601;28;20235;-80
2022/02/10 19:42:19;;;;;;;4.50;3.17;;;;;;;5.72;82.58;101197.56;5007365;28;20223;-79
2022/02/10 19:44:46;;;;;;;4.23;3.60;;;;;;;5.66;82.98;101198.63;5018993;28;20210;-80
2022/02/10 19:47:12;;;;;;;7.60;5.37;;;;;;;5.62;82.72;101193.50;5014474;28;20215;-80
2022/02/10 19:49:40;;;;;;;18.10;12.23;;;;;;;5.59;82.34;101192.69;5017525;28;20746;-80
2022/02/10 19:52:07;;;;;;;5.50;4.00;;;;;;;5.56;82.48;101195.41;5008466;28;20235;-82
2022/02/10 19:54:38;;;;;;;9.47;7.37;;;;;;;5.54;82.18;101199.94;5007166;28;20278;-81
2022/02/10 19:57:08;;;;;;;6.73;4.00;;;;;;;5.50;82.68;101176.28;5025437;28;20226;-79
2022/02/10 19:59:34;;;;;;;5.20;3.70;;;;;;;5.48;82.29;101178.13;5016376;28;20250;-80
2022/02/10 20:02:03;;;;;;;4.03;2.37;;;;;;;5.43;82.35;101182.69;5019947;28;20255;-80
2022/02/10 20:04:30;;;;;;;3.90;2.20;;;;;;;5.39;82.70;101178.41;5017782;28;20207;-79
2022/02/10 20:06:57;;;;;;;5.57;3.00;;;;;;;5.37;82.16;101173.22;5014423;28;20183;-80
2022/02/10 20:09:24;;;;;;;3.90;2.50;;;;;;;5.34;82.37;101178.59;5014899;28;20218;-81
2022/02/10 20:11:51;;;;;;;3.83;2.80;;;;;;;5.30;82.38;101176.97;5022557;28;20237;-81
2022/02/10 20:14:21;;;;;;;5.83;2.83;;;;;;;5.27;82.58;101177.06;5013826;28;21019;-81
2022/02/10 20:16:47;;;;;;;3.57;2.87;;;;;;;5.28;82.81;101175.28;5024156;28;20203;-80
2022/02/10 20:19:14;;;;;;;3.97;3.13;;;;;;;5.26;82.88;101174.47;5020589;28;20217;-81
2022/02/10 20:21:41;;;;;;;4.53;2.93;;;;;;;5.25;82.94;101173.59;5013414;28;20223;-81
2022/02/10 20:24:08;;;;;;;5.57;2.87;;;;;;;5.24;83.12;101171.88;5011607;28;20298;-80
2022/02/10 20:26:34;;;;;;;3.33;2.30;;;;;;;5.20;82.96;101167.59;5015658;28;20208;-79
2022/02/10 20:29:01;;;;;;;3.73;2.57;;;;;;;5.17;83.32;101173.00;5010640;28;20303;-82
2022/02/10 20:31:29;;;;;;;3.27;2.60;;;;;;;5.14;83.21;101176.59;5020062;28;20291;-81
2022/02/10 20:33:56;;;;;;;3.53;2.47;;;;;;;5.12;83.13;101178.44;5008181;28;20271;-81
2022/02/10 20:36:22;;;;;;;4.47;2.80;;;;;;;5.09;83.19;101181.16;5009143;28;20266;-80
2022/02/10 20:38:55;;;;;;;3.00;2.60;;;;;;;5.07;83.44;101185.63;5011567;28;20214;-79
2022/02/10 20:41:24;;;;;;;2.93;2.37;;;;;;;5.04;83.34;101180.44;5013817;28;20225;-79
2022/02/10 20:43:55;;;;;;;3.77;2.00;;;;;;;5.00;83.32;101170.91;5008181;28;20200;-80
2022/02/10 20:46:23;;;;;;;2.93;1.70;;;;;;;4.96;83.29;101169.28;5018110;28;20660;-79
2022/02/10 20:48:51;;;;;;;1.73;1.63;;;;;;;4.95;83.32;101166.69;5020586;28;20211;-79
2022/02/10 20:51:18;;;;;;;2.97;1.57;;;;;;;4.95;83.25;101169.31;5016016;28;20274;-78
2022/02/10 20:53:47;;;;;;;2.50;1.80;;;;;;;4.88;83.36;101174.78;5008502;28;20258;-79
2022/02/10 20:56:15;;;;;;;2.67;1.77;;;;;;;4.87;82.97;101172.19;5009799;28;20274;-79
2022/02/10 20:58:42;;;;;;;2.57;1.57;;;;;;;4.86;82.93;101163.41;5010992;28;20199;-80
2022/02/10 21:01:12;;;;;;;2.60;2.00;;;;;;;4.84;83.33;101157.31;5026270;28;20891;-80
2022/02/10 21:03:39;;;;;;;1.93;1.63;;;;;;;4.81;83.23;101154.81;5012813;28;20304;-80
2022/02/10 21:06:13;;;;;;;2.10;1.60;;;;;;;4.81;83.27;101152.16;5019209;28;20618;-80
2022/02/10 21:08:47;;;;;;;1.83;1.50;;;;;;;4.76;83.13;101148.78;5019725;28;20198;-80
2022/02/10 21:11:15;;;;;;;3.60;1.40;;;;;;;4.75;83.41;101151.47;5020514;28;20239;-81
2022/02/10 21:13:42;;;;;;;1.77;1.50;;;;;;;4.74;83.46;101140.06;5017393;28;20262;-82
2022/02/10 21:16:09;;;;;;;2.43;1.60;;;;;;;4.73;83.54;101138.34;5019579;28;20204;-81
2022/02/10 21:18:36;;;;;;;4.27;1.90;;;;;;;4.73;83.12;101154.16;5021810;28;20651;-80
2022/02/10 21:21:07;;;;;;;3.20;1.90;;;;;;;4.71;83.10;101149.84;5018243;28;20207;-80
2022/02/10 21:23:39;;;;;;;4.67;2.20;;;;;;;4.69;83.16;101144.59;5016233;28;20211;-80
2022/02/10 21:26:07;;;;;;;4.00;2.73;;;;;;;4.69;83.40;101149.88;5010865;28;20210;-79
2022/02/10 21:28:36;;;;;;;3.20;1.80;;;;;;;4.69;83.30;101147.25;5012884;28;20234;-79
2022/02/10 21:31:05;;;;;;;2.83;2.20;;;;;;;4.67;83.48;101150.84;5018284;28;20199;-80
2022/02/10 21:33:45;;;;;;;3.20;2.30;;;;;;;4.66;83.50;101160.53;5009767;28;20227;-80
2022/02/10 21:39:20;;;;;;;2.57;2.33;;;;;;;4.64;83.36;101158.88;4995914;28;20203;-78
2022/02/10 21:53:40;;;;;;;5.07;2.50;;;;;;;4.60;84.02;101159.88;5007977;28;20417;-81
2022/02/10 21:59:23;;;;;;;3.53;2.93;;;;;;;4.58;84.18;101167.84;5011310;28;20203;-81
2022/02/10 22:18:45;;;;;;;2.97;2.20;;;;;;;4.48;84.68;101169.00;5017852;28;20262;-80
2022/02/10 22:21:13;;;;;;;2.07;1.40;;;;;;;4.43;84.24;101177.06;5010726;28;20238;-80
2022/02/10 22:23:45;;;;;;;1.73;0.80;;;;;;;4.39;83.81;101179.84;5013384;28;20211;-80
2022/02/10 22:26:18;;;;;;;1.83;0.70;;;;;;;4.34;83.37;101181.75;5020168;28;20223;-79
2022/02/10 22:28:51;;;;;;;0.30;0.30;;;;;;;4.29;83.49;101181.03;5012496;28;20350;-81
2022/02/10 22:31:29;;;;;;;0.50;0.47;;;;;;;4.25;82.95;101180.25;5010155;28;20211;-79
2022/02/10 22:34:10;;;;;;;2.37;0.87;;;;;;;4.23;82.41;101171.50;5020083;28;20705;-81
2022/02/10 22:36:38;;;;;;;0.40;0.30;;;;;;;4.19;81.77;101168.09;5007562;28;20195;-81
2022/02/10 22:39:05;;;;;;;0.47;0.47;;;;;;;4.17;82.05;101169.91;5019892;28;20207;-81
2022/02/10 22:41:33;;;;;;;1.20;0.40;;;;;;;4.14;80.98;101170.00;5016951;28;20728;-78
2022/02/10 22:44:03;;;;;;;1.60;0.40;;;;;;;4.14;80.61;101169.13;5021329;28;20231;-80
2022/02/10 22:46:31;;;;;;;1.00;0.50;;;;;;;4.13;80.50;101177.94;5013236;28;20266;-79
2022/02/10 22:48:58;;;;;;;0.60;0.40;;;;;;;4.11;80.38;101175.38;5020940;28;20213;-79
2022/02/10 22:51:27;;;;;;;1.67;0.70;;;;;;;4.12;80.13;101179.72;5017176;28;20230;-79
2022/02/10 22:53:54;;;;;;;1.57;0.50;;;;;;;4.11;79.73;101167.47;5015421;28;20314;-82
2022/02/10 22:56:23;;;;;;;0.73;0.67;;;;;;;4.10;79.93;101172.78;5014293;28;20203;-79
2022/02/10 22:58:54;;;;;;;2.03;0.60;;;;;;;4.10;79.24;101168.38;5014069;28;20290;-79
2022/02/10 23:01:22;;;;;;;0.60;0.60;;;;;;;4.11;79.14;101164.84;5019991;28;20237;-79
2022/02/10 23:03:48;;;;;;;1.37;0.60;;;;;;;4.11;79.12;101162.19;5017098;28;20287;-79
2022/02/10 23:06:16;;;;;;;2.33;0.70;;;;;;;4.11;78.70;101167.47;5009711;28;20215;-81
2022/02/10 23:08:43;;;;;;;2.60;0.80;;;;;;;4.10;78.86;101163.09;5007988;28;20215;-82
2022/02/10 23:11:13;;;;;;;1.27;0.60;;;;;;;4.10;78.39;101165.75;5016503;28;20231;-81
2022/02/10 23:13:44;;;;;;;4.00;0.70;;;;;;;4.10;78.20;101165.75;5023596;28;20250;-81
2022/02/10 23:16:12;;;;;;;1.97;0.70;;;;;;;4.08;78.62;101164.06;5016801;28;20637;-79
2022/02/10 23:18:42;;;;;;;2.53;1.17;;;;;;;4.08;78.33;101162.28;5014806;28;20648;-79
2022/02/10 23:21:13;;;;;;;0.80;0.70;;;;;;;4.08;78.19;101169.31;5017280;28;20210;-82
2022/02/10 23:23:43;;;;;;;4.37;1.70;;;;;;;4.07;78.58;101167.59;5016766;28;20203;-82
2022/02/10 23:26:10;;;;;;;1.37;0.63;;;;;;;4.07;78.61;101178.13;5015966;28;20219;-81
2022/02/10 23:28:39;;;;;;;3.87;1.10;;;;;;;4.06;78.13;101172.00;5019236;28;20263;-80
2022/02/10 23:31:10;;;;;;;3.27;1.10;;;;;;;4.07;78.09;101189.53;5018849;28;20203;-81
2022/02/10 23:33:39;;;;;;;1.90;1.10;;;;;;;4.06;78.78;101187.81;5020246;28;20247;-81
2022/02/10 23:39:00;;;;;;;3.43;1.43;;;;;;;4.08;78.67;101186.00;5015667;28;20266;-79
2022/02/10 23:44:28;;;;;;;3.33;1.60;;;;;;;4.09;78.74;101193.00;5093469;27;20576;-72
2022/02/10 23:46:55;;;;;;;2.73;2.00;;;;;;;4.12;79.07;101192.06;5080397;28;20216;-72
2022/02/10 23:49:24;;;;;;;4.90;2.27;;;;;;;4.11;79.19;101196.47;5080539;28;20200;-72
2022/02/10 23:51:56;;;;;;;4.80;2.60;;;;;;;4.12;79.40;101192.88;5074848;28;20232;-71
2022/02/10 23:54:24;;;;;;;4.93;2.77;;;;;;;4.13;79.60;101189.34;5077800;28;20238;-70
2022/02/10 23:56:56;;;;;;;4.80;2.80;;;;;;;4.13;79.80;101199.91;5095466;22;20188;-71
2022/02/10 23:59:37;;;;;;;4.13;2.87;;;;;;;4.14;80.00;101191.06;5056687;28;20275;-68
